sensor_id;sensor_type;location;lat;lon;timestamp;P1;durP1;ratioP1;P2;durP2;ratioP2
40695;SDS011;40425;51.102;17.208;2022-12-18T00:03:57;58.27;;;18.97;;
40695;SDS011;40425;51.102;17.208;2022-12-18T00:08:59;52.33;;;20.00;;
40695;SDS011;40425;51.102;17.208;2022-12-18T00:14:01;50.50;;;18.33;;
40695;SDS011;40425;51.102;17.208;2022-12-18T00:19:02;53.77;;;19.43;;
40695;SDS011;40425;51.102;17.208;2022-12-18T00:24:04;50.53;;;18.60;;
40695;SDS011;40425;51.102;17.208;2022-12-18T00:29:06;53.07;;;18.93;;
40695;SDS011;40425;51.102;17.208;2022-12-18T00:34:11;48.53;;;20.50;;
40695;SDS011;40425;51.102;17.208;2022-12-18T00:39:13;51.60;;;18.97;;
40695;SDS011;40425;51.102;17.208;2022-12-18T00:44:14;56.87;;;20.20;;
40695;SDS011;40425;51.102;17.208;2022-12-18T00:49:17;45.43;;;17.07;;
40695;SDS011;40425;51.102;17.208;2022-12-18T00:54:19;41.90;;;15.67;;
40695;SDS011;40425;51.102;17.208;2022-12-18T00:59:20;45.47;;;16.43;;
40695;SDS011;40425;51.102;17.208;2022-12-18T01:04:21;44.83;;;16.37;;
40695;SDS011;40425;51.102;17.208;2022-12-18T01:09:21;44.73;;;17.07;;
40695;SDS011;40425;51.102;17.208;2022-12-18T01:14:22;46.07;;;15.83;;
40695;SDS011;40425;51.102;17.208;2022-12-18T01:19:23;51.60;;;18.03;;
40695;SDS011;40425;51.102;17.208;2022-12-18T01:24:24;53.87;;;17.53;;
40695;SDS011;40425;51.102;17.208;2022-12-18T01:29:25;52.73;;;17.70;;
40695;SDS011;40425;51.102;17.208;2022-12-18T01:34:26;48.20;;;17.60;;
40695;SDS011;40425;51.102;17.208;2022-12-18T01:39:27;49.67;;;18.60;;
40695;SDS011;40425;51.102;17.208;2022-12-18T01:50:24;43.77;;;15.37;;
40695;SDS011;40425;51.102;17.208;2022-12-18T01:55:24;42.83;;;15.30;;
40695;SDS011;40425;51.102;17.208;2022-12-18T02:00:28;50.27;;;18.23;;
40695;SDS011;40425;51.102;17.208;2022-12-18T02:10:52;57.47;;;17.80;;
40695;SDS011;40425;51.102;17.208;2022-12-18T02:16:11;51.00;;;17.42;;
40695;SDS011;40425;51.102;17.208;2022-12-18T02:21:25;41.90;;;15.47;;
40695;SDS011;40425;51.102;17.208;2022-12-18T02:26:56;47.00;;;16.83;;
40695;SDS011;40425;51.102;17.208;2022-12-18T02:32:02;42.23;;;15.53;;
40695;SDS011;40425;51.102;17.208;2022-12-18T02:37:07;48.50;;;16.70;;
40695;SDS011;40425;51.102;17.208;2022-12-18T02:42:11;49.20;;;16.40;;
40695;SDS011;40425;51.102;17.208;2022-12-18T02:47:13;42.47;;;14.47;;
40695;SDS011;40425;51.102;17.208;2022-12-18T03:02:53;41.33;;;15.67;;
40695;SDS011;40425;51.102;17.208;2022-12-18T03:07:57;36.47;;;14.27;;
40695;SDS011;40425;51.102;17.208;2022-12-18T03:13:12;36.20;;;14.37;;
40695;SDS011;40425;51.102;17.208;2022-12-18T03:18:21;37.60;;;13.70;;
40695;SDS011;40425;51.102;17.208;2022-12-18T03:23:27;39.63;;;14.33;;
40695;SDS011;40425;51.102;17.208;2022-12-18T03:28:33;41.17;;;15.17;;
40695;SDS011;40425;51.102;17.208;2022-12-18T03:39:15;34.97;;;13.20;;
40695;SDS011;40425;51.102;17.208;2022-12-18T03:44:29;35.10;;;13.10;;
40695;SDS011;40425;51.102;17.208;2022-12-18T03:49:38;32.70;;;12.80;;
40695;SDS011;40425;51.102;17.208;2022-12-18T03:54:54;34.67;;;14.57;;
40695;SDS011;40425;51.102;17.208;2022-12-18T03:59:59;37.77;;;13.30;;
40695;SDS011;40425;51.102;17.208;2022-12-18T04:05:04;38.17;;;13.60;;
40695;SDS011;40425;51.102;17.208;2022-12-18T04:10:07;33.17;;;11.73;;
40695;SDS011;40425;51.102;17.208;2022-12-18T04:15:12;33.20;;;12.77;;
40695;SDS011;40425;51.102;17.208;2022-12-18T04:20:13;31.73;;;12.10;;
40695;SDS011;40425;51.102;17.208;2022-12-18T04:25:14;33.87;;;12.33;;
40695;SDS011;40425;51.102;17.208;2022-12-18T04:30:15;39.97;;;14.80;;
40695;SDS011;40425;51.102;17.208;2022-12-18T04:35:16;36.73;;;13.40;;
40695;SDS011;40425;51.102;17.208;2022-12-18T04:40:17;38.77;;;13.23;;
40695;SDS011;40425;51.102;17.208;2022-12-18T04:45:18;34.60;;;12.97;;
40695;SDS011;40425;51.102;17.208;2022-12-18T04:50:18;33.07;;;13.63;;
40695;SDS011;40425;51.102;17.208;2022-12-18T04:55:19;36.37;;;14.40;;
40695;SDS011;40425;51.102;17.208;2022-12-18T05:00:20;35.10;;;13.53;;
40695;SDS011;40425;51.102;17.208;2022-12-18T05:05:22;35.37;;;14.57;;
40695;SDS011;40425;51.102;17.208;2022-12-18T05:10:22;36.77;;;14.93;;
40695;SDS011;40425;51.102;17.208;2022-12-18T05:15:24;31.50;;;12.80;;
40695;SDS011;40425;51.102;17.208;2022-12-18T05:20:31;39.97;;;12.07;;
40695;SDS011;40425;51.102;17.208;2022-12-18T05:25:32;35.10;;;13.47;;
40695;SDS011;40425;51.102;17.208;2022-12-18T05:30:33;40.70;;;15.27;;
40695;SDS011;40425;51.102;17.208;2022-12-18T05:35:33;33.03;;;13.47;;
40695;SDS011;40425;51.102;17.208;2022-12-18T05:40:34;41.70;;;17.33;;
40695;SDS011;40425;51.102;17.208;2022-12-18T05:45:37;64.07;;;27.60;;
40695;SDS011;40425;51.102;17.208;2022-12-18T05:50:39;64.87;;;25.70;;
40695;SDS011;40425;51.102;17.208;2022-12-18T05:55:41;46.60;;;20.70;;
40695;SDS011;40425;51.102;17.208;2022-12-18T06:00:44;50.80;;;22.93;;
40695;SDS011;40425;51.102;17.208;2022-12-18T06:05:45;53.40;;;22.70;;
40695;SDS011;40425;51.102;17.208;2022-12-18T06:10:49;34.70;;;14.83;;
40695;SDS011;40425;51.102;17.208;2022-12-18T06:15:52;47.77;;;18.70;;
40695;SDS011;40425;51.102;17.208;2022-12-18T06:20:56;40.23;;;15.90;;
40695;SDS011;40425;51.102;17.208;2022-12-18T06:25:58;51.43;;;22.47;;
40695;SDS011;40425;51.102;17.208;2022-12-18T06:31:03;47.70;;;21.17;;
40695;SDS011;40425;51.102;17.208;2022-12-18T06:36:06;62.60;;;26.30;;
40695;SDS011;40425;51.102;17.208;2022-12-18T06:41:16;63.20;;;25.10;;
40695;SDS011;40425;51.102;17.208;2022-12-18T06:46:18;84.47;;;36.77;;
40695;SDS011;40425;51.102;17.208;2022-12-18T06:51:20;73.50;;;30.87;;
40695;SDS011;40425;51.102;17.208;2022-12-18T06:56:23;63.33;;;25.67;;
40695;SDS011;40425;51.102;17.208;2022-12-18T07:01:23;86.27;;;34.37;;
40695;SDS011;40425;51.102;17.208;2022-12-18T07:06:25;77.83;;;29.47;;
40695;SDS011;40425;51.102;17.208;2022-12-18T07:11:26;72.33;;;29.53;;
40695;SDS011;40425;51.102;17.208;2022-12-18T07:16:27;76.00;;;32.57;;
40695;SDS011;40425;51.102;17.208;2022-12-18T07:21:30;75.47;;;29.87;;
40695;SDS011;40425;51.102;17.208;2022-12-18T07:26:31;134.90;;;47.37;;
40695;SDS011;40425;51.102;17.208;2022-12-18T07:31:32;133.57;;;52.33;;
40695;SDS011;40425;51.102;17.208;2022-12-18T07:36:33;97.60;;;35.90;;
40695;SDS011;40425;51.102;17.208;2022-12-18T07:41:34;100.40;;;39.47;;
40695;SDS011;40425;51.102;17.208;2022-12-18T07:46:35;79.53;;;34.83;;
40695;SDS011;40425;51.102;17.208;2022-12-18T07:51:36;77.47;;;32.57;;
40695;SDS011;40425;51.102;17.208;2022-12-18T07:56:37;62.57;;;27.10;;
40695;SDS011;40425;51.102;17.208;2022-12-18T08:01:37;64.33;;;25.63;;
40695;SDS011;40425;51.102;17.208;2022-12-18T08:06:39;58.47;;;23.33;;
40695;SDS011;40425;51.102;17.208;2022-12-18T08:11:39;54.60;;;24.13;;
40695;SDS011;40425;51.102;17.208;2022-12-18T08:16:40;53.30;;;21.50;;
40695;SDS011;40425;51.102;17.208;2022-12-18T08:21:41;59.40;;;22.73;;
40695;SDS011;40425;51.102;17.208;2022-12-18T08:26:42;48.03;;;21.20;;
40695;SDS011;40425;51.102;17.208;2022-12-18T08:31:43;51.87;;;23.73;;
40695;SDS011;40425;51.102;17.208;2022-12-18T08:36:44;47.40;;;19.20;;
40695;SDS011;40425;51.102;17.208;2022-12-18T08:41:45;49.20;;;20.43;;
40695;SDS011;40425;51.102;17.208;2022-12-18T08:52:06;36.87;;;17.20;;
40695;SDS011;40425;51.102;17.208;2022-12-18T08:57:07;38.50;;;17.57;;
40695;SDS011;40425;51.102;17.208;2022-12-18T09:02:09;37.80;;;17.87;;
40695;SDS011;40425;51.102;17.208;2022-12-18T09:07:11;37.37;;;17.03;;
40695;SDS011;40425;51.102;17.208;2022-12-18T09:12:12;39.60;;;17.27;;
40695;SDS011;40425;51.102;17.208;2022-12-18T09:17:12;39.30;;;17.73;;
40695;SDS011;40425;51.102;17.208;2022-12-18T09:22:13;43.57;;;17.70;;
40695;SDS011;40425;51.102;17.208;2022-12-18T09:27:14;33.10;;;15.77;;
40695;SDS011;40425;51.102;17.208;2022-12-18T09:32:15;36.73;;;17.33;;
40695;SDS011;40425;51.102;17.208;2022-12-18T09:37:18;31.00;;;14.90;;
40695;SDS011;40425;51.102;17.208;2022-12-18T09:42:23;39.87;;;17.67;;
40695;SDS011;40425;51.102;17.208;2022-12-18T09:47:27;41.03;;;18.03;;
40695;SDS011;40425;51.102;17.208;2022-12-18T09:52:35;41.70;;;18.67;;
40695;SDS011;40425;51.102;17.208;2022-12-18T09:57:42;45.20;;;18.67;;
40695;SDS011;40425;51.102;17.208;2022-12-18T10:02:47;40.53;;;18.93;;
